Jepson Prairie Reserve, California Weather observations

Data are for 10 minute period ending at time listed.
 Day   Time   Solar   Ave.   Ave.  Ave.  Vector  Max.   Baro.   Total    
  of    of     Rad.   Air    Rel.  Wind   Wind   Wind  Press.  Precip.   
Year   Day            Temp.  Hum.  Speed  Dir.   Gust                    
2015   (PST)  Kw/m2    F      %     mph   deg.    mph    mb.     in.     
-------------------------------------------------------------------------
 241    6:10   0.00   66.6    85    8.2   197    10.1   1012.5    0.00 
 241    6:20   0.00   66.5    86    6.1   205     8.6   1012.5    0.00 
 241    6:30   0.01   66.6    85    5.3   196     6.2   1012.9    0.00 
 241    6:40   0.02   66.8    84    5.0   188     6.1   1012.9    0.00 
 241    6:50   0.03   67.0    84    5.1   188     6.4   1012.9    0.00 
 241    7:00   0.04   66.9    85    4.9   187     6.8   1012.9    0.00 
 241    7:10   0.05   67.0    85    4.1   179     6.1   1013.2    0.00 
 241    7:20   0.03   66.7    86    5.8   159     8.1   1013.2    0.00 
 241    7:30   0.04   66.5    87    5.2   164     7.6   1013.2    0.00 
 241    7:40   0.04   66.2    89    3.6   169     5.6   1013.2    0.00 
 241    7:50   0.05   66.5    89    3.9   159     5.6   1013.2    0.00 
 241    8:00   0.06   66.6    89    4.1   189     6.9   1013.5    0.00 
 241    8:10   0.06   66.7    89    4.8   204     7.1   1013.5    0.00 
 241    8:20   0.06   66.9    89    5.0   198     7.0   1013.5    0.00 
 241    8:30   0.05   66.9    89    6.1   192     7.4   1013.5    0.00 
 241    8:40   0.05   66.8    90    4.3   184     6.5   1013.5    0.00 
 241    8:50   0.06   67.0    90    4.2   172     5.5   1013.5    0.00 
 241    9:00   0.07   66.9    91    3.4   144     4.5   1013.5    0.00 
 241    9:10   0.10   67.1    91    3.8   137     5.6   1013.9    0.00 
 241    9:20   0.14   67.4    91    4.0   139     5.6   1013.9    0.00 
 241    9:30   0.16   67.7    91    5.3   127     6.5   1013.9    0.00 
 241    9:40   0.13   67.4    92    4.9   124     5.9   1013.9    0.00 
 241    9:50   0.12   67.3    93    4.5   134     6.0   1013.9    0.00 
 241   10:00   0.15   67.4    93    4.8   138     6.2   1013.9    0.00 
 241   10:10   0.16   67.6    93    4.6   142     6.4   1014.2    0.00 
 241   10:20   0.26   68.3    93    5.5   154     7.9   1014.2    0.00 
 241   10:30   0.26   68.7    92    5.0   150     7.1   1013.9    0.00 
 241   10:40   0.29   69.5    91    5.7   163     9.3   1014.2    0.00 
 241   10:50   0.36   70.4    88    9.6   191    12.5   1013.9    0.00 
 241   11:00   0.40   71.2    84   11.3   192    14.6   1013.9    0.00 
 241   11:10   0.46   71.7    81   11.3   193    14.0   1013.9    0.00 
 241   11:20   0.43   72.6    78   10.5   197    16.7   1013.5    0.00 
 241   11:30   0.55   73.6    73   11.4   213    15.7   1013.5    0.00 
 241   11:40   0.70   75.0    69   11.0   206    16.7   1013.5    0.00 
 241   11:50   0.73   75.9    66   12.2   213    17.0   1013.2    0.00 
 241   12:00   0.64   76.2    66   10.8   216    17.7   1013.2    0.00 
 241   12:10   0.41   75.5    66   10.9   238    19.4   1012.9    0.00 
 241   12:20   0.36   75.5    65    9.6   226    14.7   1012.9    0.00 
 241   12:30   0.66   76.7    62   10.6   205    19.3   1012.9    0.00 
 241   12:40   0.64   78.4    58   13.4   202    19.9   1012.5    0.00 
 241   12:50   0.77   79.1    54   13.8   214    19.6   1012.5    0.00 
 241   13:00   0.65   79.4    53   13.0   207    20.2   1012.5    0.00 
 241   13:10   0.70   79.8    52   15.5   206    21.5   1012.5    0.00 
 241   13:20   0.68   80.4    49   15.5   212    22.3   1012.2    0.00 
 241   13:30   0.65   80.4    49   15.1   208    21.3   1012.2    0.00 
 241   13:40   0.71   81.0    47   14.2   196    20.4   1012.2    0.00 
 241   13:50   0.72   81.6    46   17.7   197    23.2   1012.2    0.00 
 241   14:00   0.65   81.5    45   15.2   208    22.0   1011.9    0.00 
 241   14:10   0.68   82.7    39   17.5   219    23.9   1011.9    0.00 
 241   14:20   0.69   82.4    40   17.2   208    23.5   1011.9    0.00 
 241   14:30   0.75   83.2    40   15.8   225    25.0   1011.9    0.00 
 241   14:40   0.61   82.7    39   17.6   220    27.4   1011.9    0.00 
 241   14:50   0.68   83.2    38   17.2   226    22.6   1011.5    0.00 
 241   15:00   0.67   83.5    36   16.3   227    23.1   1011.5    0.00 
 241   15:10   0.64   83.1    34   18.7   225    25.4   1011.5    0.00 
 241   15:20   0.60   83.1    33   18.3   231    26.7   1011.5    0.00 
 241   15:30   0.57   83.0    33   18.0   235    23.8   1011.5    0.00 
 241   15:40   0.54   83.1    34   17.1   239    23.2   1011.5    0.00 
 241   15:50   0.51   82.5    35   18.5   224    27.6   1011.5    0.00 
 241   16:00   0.48   82.1    35   18.9   228    24.5   1011.5    0.00 
 241   16:10   0.45   81.7    34   18.2   230    23.3   1011.5    0.00 
 241   16:20   0.41   81.5    34   17.6   229    24.5   1011.5    0.00 
 241   16:30   0.38   81.4    34   17.4   226    21.6   1011.5    0.00 
 241   16:40   0.35   81.2    34   17.7   228    23.6   1011.2    0.00 
 241   16:50   0.31   80.3    35   18.4   222    24.8   1011.2    0.00 
 241   17:00   0.28   80.1    32   18.2   231    23.0   1011.5    0.00 
 241   17:10   0.25   79.9    31   17.4   227    22.4   1011.5    0.00 
 241   17:20   0.21   79.3    30   19.3   224    23.4   1011.2    0.00 
 241   17:30   0.18   78.7    32   20.1   221    25.4   1011.2    0.00 
 241   17:40   0.15   78.2    34   19.0   219    23.3   1011.5    0.00 
 241   17:50   0.12   77.5    35   19.1   223    23.5   1011.5    0.00 
 241   18:00   0.09   76.5    39   20.4   223    26.2   1011.2    0.00 
 241   18:10   0.07   75.7    41   20.0   222    25.2   1011.5    0.00 
 241   18:20   0.04   74.8    41   18.4   223    22.9   1011.5    0.00 
 241   18:30   0.02   73.8    43   18.2   222    23.5   1011.5    0.00 
 241   18:40   0.01   72.7    45   14.5   221    18.8   1011.9    0.00 
 241   18:50   0.00   72.1    45   17.1   225    23.3   1011.9    0.00 
 241   19:00   0.00   71.4    46   19.5   224    24.8   1011.9    0.00 
 241   19:10   0.00   70.7    47   18.2   224    25.5   1011.9    0.00 
 241   19:20   0.00   69.9    48   17.9   226    24.2   1012.2    0.00 
 241   19:30   0.00   69.2    50   19.8   230    24.8   1012.2    0.00 
 241   19:40   0.00   68.5    52   18.8   223    23.4   1012.2    0.00 
 241   19:50   0.00   67.8    54   20.7   222    25.4   1012.2    0.00 
 241   20:00   0.00   67.2    57   21.0   224    25.7   1012.2    0.00 
 241   20:10   0.00   66.8    60   20.3   221    25.8   1012.5    0.00 
 241   20:20   0.00   66.3    62   20.0   224    25.0   1012.5    0.00 
 241   20:30   0.00   65.8    66   19.0   226    23.5   1012.5    0.00 
 241   20:40   0.00   65.3    68   17.6   228    22.8   1012.9    0.00 
 241   20:50   0.00   64.8    70   16.6   221    20.5   1012.9    0.00 
 241   21:00   0.00   64.4    71   15.3   224    18.1   1012.9    0.00 
 241   21:10   0.00   64.2    72   15.8   218    19.7   1012.5    0.00 
 241   21:20   0.00   64.0    75   16.5   214    20.3   1012.5    0.00 
 241   21:30   0.00   63.7    76   15.8   217    19.6   1012.5    0.00 
 241   21:40   0.00   63.7    77   18.1   218    22.1   1012.2    0.00 
 241   21:50   0.00   63.7    78   19.5   218    24.2   1012.2    0.00 
 241   22:00   0.00   63.6    79   19.6   221    24.6   1012.2    0.00 
 241   22:10   0.00   63.5    80   17.7   220    21.4   1012.2    0.00 
 241   22:20   0.00   63.3    80   16.8   220    21.6   1012.2    0.00 
 241   22:30   0.00   63.2    80   17.9   220    22.4   1012.2    0.00 
 241   22:40   0.00   63.1    82   20.0   219    25.4   1012.2    0.00 
 241   22:50   0.00   62.9    83   19.5   219    25.6   1012.2    0.00 
 241   23:00   0.00   62.7    85   19.5   222    24.0   1012.5    0.00 
 241   23:10   0.00   62.6    86   20.4   219    25.5   1012.5    0.00 
 241   23:20   0.00   62.4    87   20.4   217    25.4   1012.5    0.00 
 241   23:30   0.00   62.4    87   20.0   217    25.7   1012.5    0.00 
 241   23:40   0.00   62.3    87   18.9   220    23.2   1012.5    0.00 
 241   23:50   0.00   62.3    87   19.2   222    24.6   1012.5    0.00 
 242    0:00   0.00   62.3    88   18.8   223    24.7   1012.5    0.00 
 242    0:10   0.00   62.6    87   20.3   219    25.1   1012.5    0.00 
 242    0:20   0.00   62.7    86   21.9   218    26.3   1012.2    0.00 
 242    0:30   0.00   62.6    86   21.4   218    26.7   1012.2    0.00 
 242    0:40   0.00   62.3    87   20.0   218    23.9   1012.2    0.00 
 242    0:50   0.00   62.2    87   19.1   218    23.5   1012.2    0.00 
 242    1:00   0.00   62.0    87   18.2   218    23.4   1012.2    0.00 
 242    1:10   0.00   62.0    87   19.6   216    24.0   1012.2    0.00 
 242    1:20   0.00   61.9    87   20.3   216    24.7   1012.2    0.00 
 242    1:30   0.00   61.8    86   19.8   216    24.0   1012.2    0.00 
 242    1:40   0.00   61.7    86   19.6   217    23.5   1012.2    0.00 
 242    1:50   0.00   61.6    86   17.8   217    22.6   1012.2    0.00 
 242    2:00   0.00   61.3    86   16.3   214    18.9   1012.2    0.00 
 242    2:10   0.00   61.1    87   16.8   215    20.8   1012.2    0.00 
 242    2:20   0.00   61.2    88   17.8   216    21.0   1012.5    0.00 
 242    2:30   0.00   61.2    88   18.1   216    22.7   1012.5    0.00 
 242    2:40   0.00   61.3    88   19.1   217    24.8   1012.5    0.00 
 242    2:50   0.00   61.1    89   17.6   208    21.7   1012.5    0.00 
 242    3:00   0.00   60.8    89   18.5   213    22.8   1012.5    0.00 
 242    3:10   0.00   60.8    89   18.2   214    23.0   1012.5    0.00 
 242    3:20   0.00   60.7    89   18.5   215    22.2   1012.5    0.00 
 242    3:30   0.00   60.7    89   18.9   215    23.8   1012.5    0.00 
 242    3:40   0.00   60.8    89   18.7   217    22.7   1012.5    0.00 
 242    3:50   0.00   60.7    89   17.0   219    21.6   1012.5    0.00 
 242    4:00   0.00   60.7    90   15.9   219    20.6   1012.5    0.00 
 242    4:10   0.00   60.6    90   15.8   216    19.5   1012.5    0.00 
 242    4:20   0.00   60.5    90   16.3   215    19.6   1012.5    0.00 
 242    4:30   0.00   60.3    90   17.1   218    21.3   1012.5    0.00 
 242    4:40   0.00   60.2    90   16.0   217    20.8   1012.5    0.00 
 242    4:50   0.00   60.2    90   16.2   214    20.2   1012.5    0.00 
 242    5:00   0.00   60.2    90   15.2   215    18.9   1012.9    0.00 
 242    5:10   0.00   60.2    90   15.2   218    21.1   1012.9    0.00 
 242    5:20   0.00   59.9    90   13.7   218    17.2   1012.9    0.00 
 242    5:30   0.00   59.6    90   13.8   214    17.0   1013.2    0.00 
 242    5:40   0.01   59.6    90   13.4   214    16.7   1013.2    0.00 
 242    5:50   0.02   59.6    90   13.8   217    18.2   1013.2    0.00 
 242    6:00   0.04   59.3    91   13.1   219    16.3   1013.5    0.00 

Return to Jepson Prairie Reserve graphs page.


Western Regional Climate Center,wrcc@dri.edu